sensor_id;sensor_type;location;lat;lon;timestamp;P1;durP1;ratioP1;P2;durP2;ratioP2
21036;SDS011;10677;50.942;4.028;2023-05-28T00:00:17;25.27;;;12.20;;
21036;SDS011;10677;50.942;4.028;2023-05-28T00:02:42;24.92;;;10.90;;
21036;SDS011;10677;50.942;4.028;2023-05-28T00:05:09;22.35;;;10.48;;
21036;SDS011;10677;50.942;4.028;2023-05-28T00:07:35;20.13;;;10.13;;
21036;SDS011;10677;50.942;4.028;2023-05-28T00:10:01;22.20;;;10.48;;
21036;SDS011;10677;50.942;4.028;2023-05-28T00:12:26;23.40;;;9.82;;
21036;SDS011;10677;50.942;4.028;2023-05-28T00:14:52;25.95;;;10.88;;
21036;SDS011;10677;50.942;4.028;2023-05-28T00:17:18;22.70;;;10.27;;
21036;SDS011;10677;50.942;4.028;2023-05-28T00:19:44;28.40;;;10.80;;
21036;SDS011;10677;50.942;4.028;2023-05-28T00:22:10;26.67;;;10.82;;
21036;SDS011;10677;50.942;4.028;2023-05-28T00:24:36;23.20;;;11.75;;
21036;SDS011;10677;50.942;4.028;2023-05-28T00:27:02;26.83;;;11.65;;
21036;SDS011;10677;50.942;4.028;2023-05-28T00:29:31;28.85;;;11.55;;
21036;SDS011;10677;50.942;4.028;2023-05-28T00:31:57;26.98;;;11.30;;
21036;SDS011;10677;50.942;4.028;2023-05-28T00:34:23;28.75;;;11.10;;
21036;SDS011;10677;50.942;4.028;2023-05-28T00:36:49;31.45;;;12.45;;
21036;SDS011;10677;50.942;4.028;2023-05-28T00:39:18;21.40;;;11.52;;
21036;SDS011;10677;50.942;4.028;2023-05-28T00:41:44;23.90;;;11.63;;
21036;SDS011;10677;50.942;4.028;2023-05-28T00:44:10;25.08;;;11.25;;
21036;SDS011;10677;50.942;4.028;2023-05-28T00:46:40;27.30;;;11.57;;
21036;SDS011;10677;50.942;4.028;2023-05-28T00:49:07;23.88;;;11.07;;
21036;SDS011;10677;50.942;4.028;2023-05-28T00:51:35;36.58;;;13.40;;
21036;SDS011;10677;50.942;4.028;2023-05-28T00:54:02;26.55;;;11.63;;
21036;SDS011;10677;50.942;4.028;2023-05-28T00:56:28;24.65;;;11.60;;
21036;SDS011;10677;50.942;4.028;2023-05-28T00:58:56;21.65;;;11.20;;
21036;SDS011;10677;50.942;4.028;2023-05-28T01:01:25;27.52;;;12.38;;
21036;SDS011;10677;50.942;4.028;2023-05-28T01:03:51;24.38;;;11.20;;
21036;SDS011;10677;50.942;4.028;2023-05-28T01:06:18;27.63;;;11.88;;
21036;SDS011;10677;50.942;4.028;2023-05-28T01:08:46;26.17;;;11.90;;
21036;SDS011;10677;50.942;4.028;2023-05-28T01:11:19;26.55;;;11.40;;
21036;SDS011;10677;50.942;4.028;2023-05-28T01:13:46;30.73;;;11.98;;
21036;SDS011;10677;50.942;4.028;2023-05-28T01:16:12;25.98;;;12.00;;
21036;SDS011;10677;50.942;4.028;2023-05-28T01:18:38;21.73;;;11.40;;
21036;SDS011;10677;50.942;4.028;2023-05-28T01:21:05;21.67;;;11.65;;
21036;SDS011;10677;50.942;4.028;2023-05-28T01:23:37;30.48;;;11.55;;
21036;SDS011;10677;50.942;4.028;2023-05-28T01:26:14;27.52;;;12.68;;
21036;SDS011;10677;50.942;4.028;2023-05-28T01:28:44;26.52;;;12.55;;
21036;SDS011;10677;50.942;4.028;2023-05-28T01:31:10;26.60;;;13.68;;
21036;SDS011;10677;50.942;4.028;2023-05-28T01:33:40;28.52;;;12.95;;
21036;SDS011;10677;50.942;4.028;2023-05-28T01:36:11;32.90;;;13.80;;
21036;SDS011;10677;50.942;4.028;2023-05-28T01:38:56;28.08;;;12.65;;
21036;SDS011;10677;50.942;4.028;2023-05-28T01:41:27;28.98;;;12.35;;
21036;SDS011;10677;50.942;4.028;2023-05-28T01:43:53;31.85;;;14.38;;
21036;SDS011;10677;50.942;4.028;2023-05-28T01:46:20;30.67;;;13.77;;
21036;SDS011;10677;50.942;4.028;2023-05-28T01:48:47;26.42;;;12.73;;
21036;SDS011;10677;50.942;4.028;2023-05-28T01:51:22;30.23;;;13.10;;
21036;SDS011;10677;50.942;4.028;2023-05-28T01:53:48;30.70;;;13.20;;
21036;SDS011;10677;50.942;4.028;2023-05-28T01:56:14;26.85;;;13.77;;
21036;SDS011;10677;50.942;4.028;2023-05-28T01:58:40;29.95;;;14.20;;
21036;SDS011;10677;50.942;4.028;2023-05-28T02:04:07;26.55;;;13.65;;
21036;SDS011;10677;50.942;4.028;2023-05-28T02:06:33;29.80;;;14.60;;
21036;SDS011;10677;50.942;4.028;2023-05-28T02:08:59;28.52;;;13.98;;
21036;SDS011;10677;50.942;4.028;2023-05-28T02:11:25;29.85;;;13.82;;
21036;SDS011;10677;50.942;4.028;2023-05-28T02:13:51;35.60;;;15.27;;
21036;SDS011;10677;50.942;4.028;2023-05-28T02:16:17;27.75;;;13.70;;
21036;SDS011;10677;50.942;4.028;2023-05-28T02:18:46;28.27;;;13.73;;
21036;SDS011;10677;50.942;4.028;2023-05-28T02:21:14;28.50;;;13.43;;
21036;SDS011;10677;50.942;4.028;2023-05-28T02:23:43;25.27;;;13.65;;
21036;SDS011;10677;50.942;4.028;2023-05-28T02:26:10;31.38;;;13.52;;
21036;SDS011;10677;50.942;4.028;2023-05-28T02:28:36;27.27;;;13.82;;
21036;SDS011;10677;50.942;4.028;2023-05-28T02:31:02;34.53;;;13.40;;
21036;SDS011;10677;50.942;4.028;2023-05-28T02:33:28;29.63;;;14.73;;
21036;SDS011;10677;50.942;4.028;2023-05-28T02:35:53;30.05;;;13.95;;
21036;SDS011;10677;50.942;4.028;2023-05-28T02:38:20;29.58;;;13.50;;
21036;SDS011;10677;50.942;4.028;2023-05-28T02:40:45;30.00;;;13.50;;
21036;SDS011;10677;50.942;4.028;2023-05-28T02:43:11;32.33;;;13.85;;
21036;SDS011;10677;50.942;4.028;2023-05-28T02:45:36;37.40;;;15.30;;
21036;SDS011;10677;50.942;4.028;2023-05-28T02:48:02;28.48;;;13.48;;
21036;SDS011;10677;50.942;4.028;2023-05-28T02:50:28;25.33;;;13.13;;
21036;SDS011;10677;50.942;4.028;2023-05-28T02:52:54;27.95;;;14.32;;
21036;SDS011;10677;50.942;4.028;2023-05-28T02:55:21;28.55;;;14.00;;
21036;SDS011;10677;50.942;4.028;2023-05-28T02:57:47;31.05;;;15.07;;
21036;SDS011;10677;50.942;4.028;2023-05-28T03:00:13;26.38;;;13.93;;
21036;SDS011;10677;50.942;4.028;2023-05-28T03:02:39;26.58;;;14.02;;
21036;SDS011;10677;50.942;4.028;2023-05-28T03:05:04;32.10;;;14.77;;
21036;SDS011;10677;50.942;4.028;2023-05-28T03:07:30;33.20;;;15.60;;
21036;SDS011;10677;50.942;4.028;2023-05-28T03:09:57;29.52;;;15.00;;
21036;SDS011;10677;50.942;4.028;2023-05-28T03:12:23;40.58;;;16.00;;
21036;SDS011;10677;50.942;4.028;2023-05-28T03:14:49;31.33;;;15.43;;
21036;SDS011;10677;50.942;4.028;2023-05-28T03:17:15;34.15;;;15.20;;
21036;SDS011;10677;50.942;4.028;2023-05-28T03:19:41;31.88;;;14.68;;
21036;SDS011;10677;50.942;4.028;2023-05-28T03:22:07;33.20;;;15.02;;
21036;SDS011;10677;50.942;4.028;2023-05-28T03:24:33;30.60;;;14.95;;
21036;SDS011;10677;50.942;4.028;2023-05-28T03:27:00;24.90;;;14.07;;
21036;SDS011;10677;50.942;4.028;2023-05-28T03:29:26;31.25;;;15.90;;
21036;SDS011;10677;50.942;4.028;2023-05-28T03:31:51;34.00;;;16.45;;
21036;SDS011;10677;50.942;4.028;2023-05-28T03:34:17;37.25;;;16.50;;
21036;SDS011;10677;50.942;4.028;2023-05-28T03:36:43;36.53;;;17.25;;
21036;SDS011;10677;50.942;4.028;2023-05-28T03:39:09;34.40;;;16.75;;
21036;SDS011;10677;50.942;4.028;2023-05-28T03:41:35;33.17;;;15.23;;
21036;SDS011;10677;50.942;4.028;2023-05-28T03:44:01;40.80;;;16.25;;
21036;SDS011;10677;50.942;4.028;2023-05-28T03:46:27;34.30;;;17.00;;
21036;SDS011;10677;50.942;4.028;2023-05-28T03:48:53;31.58;;;16.15;;
21036;SDS011;10677;50.942;4.028;2023-05-28T03:51:18;30.00;;;16.40;;
21036;SDS011;10677;50.942;4.028;2023-05-28T03:53:44;34.78;;;16.70;;
21036;SDS011;10677;50.942;4.028;2023-05-28T03:56:10;36.67;;;17.55;;
21036;SDS011;10677;50.942;4.028;2023-05-28T03:58:35;34.47;;;16.88;;
21036;SDS011;10677;50.942;4.028;2023-05-28T04:01:01;32.72;;;16.13;;
21036;SDS011;10677;50.942;4.028;2023-05-28T04:03:27;28.35;;;15.15;;
21036;SDS011;10677;50.942;4.028;2023-05-28T04:05:52;35.65;;;15.70;;
21036;SDS011;10677;50.942;4.028;2023-05-28T04:08:18;30.40;;;14.63;;
21036;SDS011;10677;50.942;4.028;2023-05-28T04:10:44;29.63;;;14.65;;
21036;SDS011;10677;50.942;4.028;2023-05-28T04:13:10;28.48;;;14.50;;
21036;SDS011;10677;50.942;4.028;2023-05-28T04:15:36;33.83;;;16.08;;
21036;SDS011;10677;50.942;4.028;2023-05-28T04:18:01;33.67;;;15.77;;
21036;SDS011;10677;50.942;4.028;2023-05-28T04:20:27;34.25;;;15.50;;
21036;SDS011;10677;50.942;4.028;2023-05-28T04:22:53;30.63;;;14.48;;
21036;SDS011;10677;50.942;4.028;2023-05-28T04:25:19;28.52;;;16.50;;
21036;SDS011;10677;50.942;4.028;2023-05-28T04:27:45;30.92;;;16.63;;
21036;SDS011;10677;50.942;4.028;2023-05-28T04:30:11;35.42;;;18.08;;
21036;SDS011;10677;50.942;4.028;2023-05-28T04:32:37;36.15;;;16.95;;
21036;SDS011;10677;50.942;4.028;2023-05-28T04:35:08;36.58;;;17.35;;
21036;SDS011;10677;50.942;4.028;2023-05-28T04:37:34;34.70;;;17.02;;
21036;SDS011;10677;50.942;4.028;2023-05-28T04:40:02;30.92;;;17.73;;
21036;SDS011;10677;50.942;4.028;2023-05-28T04:42:29;35.85;;;16.33;;
21036;SDS011;10677;50.942;4.028;2023-05-28T04:44:55;31.55;;;16.00;;
21036;SDS011;10677;50.942;4.028;2023-05-28T04:47:20;31.30;;;16.55;;
21036;SDS011;10677;50.942;4.028;2023-05-28T04:49:47;35.60;;;15.60;;
21036;SDS011;10677;50.942;4.028;2023-05-28T04:52:13;37.00;;;17.55;;
21036;SDS011;10677;50.942;4.028;2023-05-28T04:54:39;30.77;;;17.00;;
21036;SDS011;10677;50.942;4.028;2023-05-28T04:57:05;42.03;;;18.02;;
21036;SDS011;10677;50.942;4.028;2023-05-28T04:59:31;34.13;;;17.75;;
21036;SDS011;10677;50.942;4.028;2023-05-28T05:01:57;35.45;;;17.88;;
21036;SDS011;10677;50.942;4.028;2023-05-28T05:04:22;36.17;;;17.85;;
21036;SDS011;10677;50.942;4.028;2023-05-28T05:06:48;40.72;;;18.15;;
21036;SDS011;10677;50.942;4.028;2023-05-28T05:09:13;35.63;;;18.23;;
21036;SDS011;10677;50.942;4.028;2023-05-28T05:11:39;32.17;;;16.85;;
21036;SDS011;10677;50.942;4.028;2023-05-28T05:14:05;37.95;;;18.17;;
21036;SDS011;10677;50.942;4.028;2023-05-28T05:16:30;42.35;;;18.25;;
21036;SDS011;10677;50.942;4.028;2023-05-28T05:18:56;33.25;;;16.30;;
21036;SDS011;10677;50.942;4.028;2023-05-28T05:21:22;34.38;;;15.50;;
21036;SDS011;10677;50.942;4.028;2023-05-28T05:23:48;31.40;;;16.08;;
21036;SDS011;10677;50.942;4.028;2023-05-28T05:26:14;36.30;;;16.20;;
21036;SDS011;10677;50.942;4.028;2023-05-28T05:28:42;35.42;;;16.63;;
21036;SDS011;10677;50.942;4.028;2023-05-28T05:31:08;29.35;;;16.55;;
21036;SDS011;10677;50.942;4.028;2023-05-28T05:33:37;35.60;;;15.82;;
21036;SDS011;10677;50.942;4.028;2023-05-28T05:36:03;36.15;;;16.02;;
21036;SDS011;10677;50.942;4.028;2023-05-28T05:38:29;31.25;;;15.60;;
21036;SDS011;10677;50.942;4.028;2023-05-28T05:40:55;33.42;;;16.02;;
21036;SDS011;10677;50.942;4.028;2023-05-28T05:43:22;28.88;;;15.95;;
21036;SDS011;10677;50.942;4.028;2023-05-28T05:45:47;31.77;;;15.57;;
21036;SDS011;10677;50.942;4.028;2023-05-28T05:48:13;34.03;;;16.02;;
21036;SDS011;10677;50.942;4.028;2023-05-28T05:50:51;37.78;;;17.17;;
21036;SDS011;10677;50.942;4.028;2023-05-28T05:53:20;28.63;;;15.65;;
21036;SDS011;10677;50.942;4.028;2023-05-28T05:55:46;32.03;;;15.38;;
21036;SDS011;10677;50.942;4.028;2023-05-28T05:58:13;33.03;;;15.85;;
21036;SDS011;10677;50.942;4.028;2023-05-28T06:00:39;30.13;;;16.13;;
21036;SDS011;10677;50.942;4.028;2023-05-28T06:03:06;30.58;;;14.85;;
21036;SDS011;10677;50.942;4.028;2023-05-28T06:05:32;30.55;;;14.82;;
21036;SDS011;10677;50.942;4.028;2023-05-28T06:07:58;24.23;;;14.70;;
21036;SDS011;10677;50.942;4.028;2023-05-28T06:10:24;24.35;;;13.57;;
21036;SDS011;10677;50.942;4.028;2023-05-28T06:12:49;31.33;;;14.45;;
21036;SDS011;10677;50.942;4.028;2023-05-28T06:15:16;30.90;;;13.45;;
21036;SDS011;10677;50.942;4.028;2023-05-28T06:17:41;32.00;;;15.73;;
21036;SDS011;10677;50.942;4.028;2023-05-28T06:20:08;29.60;;;13.93;;
21036;SDS011;10677;50.942;4.028;2023-05-28T06:22:34;33.15;;;14.73;;
21036;SDS011;10677;50.942;4.028;2023-05-28T06:25:01;30.35;;;13.15;;
21036;SDS011;10677;50.942;4.028;2023-05-28T06:27:27;30.13;;;13.90;;
21036;SDS011;10677;50.942;4.028;2023-05-28T06:29:53;30.63;;;13.45;;
21036;SDS011;10677;50.942;4.028;2023-05-28T06:32:19;28.38;;;14.13;;
21036;SDS011;10677;50.942;4.028;2023-05-28T06:34:45;28.67;;;13.18;;
21036;SDS011;10677;50.942;4.028;2023-05-28T06:37:11;21.20;;;12.93;;
21036;SDS011;10677;50.942;4.028;2023-05-28T06:39:37;28.13;;;12.70;;
21036;SDS011;10677;50.942;4.028;2023-05-28T06:42:03;24.15;;;12.48;;
21036;SDS011;10677;50.942;4.028;2023-05-28T06:44:30;28.38;;;12.52;;
21036;SDS011;10677;50.942;4.028;2023-05-28T06:46:55;23.80;;;13.32;;
21036;SDS011;10677;50.942;4.028;2023-05-28T06:49:21;34.50;;;13.77;;
21036;SDS011;10677;50.942;4.028;2023-05-28T06:51:47;24.77;;;13.07;;
21036;SDS011;10677;50.942;4.028;2023-05-28T06:54:12;24.33;;;13.35;;
21036;SDS011;10677;50.942;4.028;2023-05-28T06:56:38;26.42;;;12.93;;
21036;SDS011;10677;50.942;4.028;2023-05-28T06:59:04;27.15;;;12.25;;
21036;SDS011;10677;50.942;4.028;2023-05-28T07:01:30;25.30;;;11.65;;
21036;SDS011;10677;50.942;4.028;2023-05-28T07:03:56;23.83;;;11.57;;
21036;SDS011;10677;50.942;4.028;2023-05-28T07:06:21;24.30;;;11.85;;
21036;SDS011;10677;50.942;4.028;2023-05-28T07:08:47;26.48;;;12.38;;
21036;SDS011;10677;50.942;4.028;2023-05-28T07:11:13;23.02;;;11.77;;
21036;SDS011;10677;50.942;4.028;2023-05-28T07:13:39;20.90;;;10.55;;
21036;SDS011;10677;50.942;4.028;2023-05-28T07:16:05;24.40;;;11.15;;
21036;SDS011;10677;50.942;4.028;2023-05-28T07:18:32;27.30;;;11.70;;
21036;SDS011;10677;50.942;4.028;2023-05-28T07:20:58;17.65;;;10.35;;
21036;SDS011;10677;50.942;4.028;2023-05-28T07:23:24;27.10;;;11.35;;
21036;SDS011;10677;50.942;4.028;2023-05-28T07:25:49;20.55;;;9.75;;
21036;SDS011;10677;50.942;4.028;2023-05-28T07:28:15;20.77;;;9.70;;
21036;SDS011;10677;50.942;4.028;2023-05-28T07:30:41;22.23;;;11.48;;
21036;SDS011;10677;50.942;4.028;2023-05-28T07:33:07;22.45;;;10.80;;
21036;SDS011;10677;50.942;4.028;2023-05-28T07:35:33;21.02;;;9.80;;
21036;SDS011;10677;50.942;4.028;2023-05-28T07:37:58;27.55;;;13.90;;
21036;SDS011;10677;50.942;4.028;2023-05-28T07:40:25;21.80;;;10.27;;
21036;SDS011;10677;50.942;4.028;2023-05-28T07:42:50;23.15;;;10.73;;
21036;SDS011;10677;50.942;4.028;2023-05-28T07:45:16;21.30;;;9.30;;
21036;SDS011;10677;50.942;4.028;2023-05-28T07:47:42;17.45;;;8.07;;
21036;SDS011;10677;50.942;4.028;2023-05-28T07:50:07;18.48;;;7.68;;
21036;SDS011;10677;50.942;4.028;2023-05-28T07:52:34;15.75;;;8.45;;
21036;SDS011;10677;50.942;4.028;2023-05-28T07:55:01;21.00;;;7.88;;
21036;SDS011;10677;50.942;4.028;2023-05-28T07:57:28;17.08;;;7.28;;
21036;SDS011;10677;50.942;4.028;2023-05-28T07:59:54;15.93;;;7.63;;
21036;SDS011;10677;50.942;4.028;2023-05-28T08:02:20;14.93;;;7.45;;
21036;SDS011;10677;50.942;4.028;2023-05-28T08:04:47;14.77;;;7.00;;
21036;SDS011;10677;50.942;4.028;2023-05-28T08:07:14;20.63;;;7.30;;
21036;SDS011;10677;50.942;4.028;2023-05-28T08:09:40;13.07;;;6.25;;
21036;SDS011;10677;50.942;4.028;2023-05-28T08:12:08;16.58;;;6.93;;
21036;SDS011;10677;50.942;4.028;2023-05-28T08:14:34;16.73;;;6.75;;
21036;SDS011;10677;50.942;4.028;2023-05-28T08:17:00;15.73;;;7.00;;
21036;SDS011;10677;50.942;4.028;2023-05-28T08:19:26;15.25;;;6.93;;
21036;SDS011;10677;50.942;4.028;2023-05-28T08:21:52;17.65;;;6.00;;
21036;SDS011;10677;50.942;4.028;2023-05-28T08:24:17;16.08;;;6.07;;
21036;SDS011;10677;50.942;4.028;2023-05-28T08:26:44;23.50;;;6.63;;
21036;SDS011;10677;50.942;4.028;2023-05-28T08:29:10;22.80;;;6.07;;
21036;SDS011;10677;50.942;4.028;2023-05-28T08:31:35;14.93;;;5.55;;
21036;SDS011;10677;50.942;4.028;2023-05-28T08:34:01;14.07;;;5.50;;
21036;SDS011;10677;50.942;4.028;2023-05-28T08:36:27;13.77;;;5.30;;
21036;SDS011;10677;50.942;4.028;2023-05-28T08:38:52;9.98;;;4.63;;
21036;SDS011;10677;50.942;4.028;2023-05-28T08:41:19;11.73;;;4.55;;
21036;SDS011;10677;50.942;4.028;2023-05-28T08:43:45;15.18;;;4.43;;
21036;SDS011;10677;50.942;4.028;2023-05-28T08:46:11;12.82;;;4.65;;
21036;SDS011;10677;50.942;4.028;2023-05-28T08:48:37;15.00;;;5.65;;
21036;SDS011;10677;50.942;4.028;2023-05-28T08:51:06;11.88;;;5.15;;
21036;SDS011;10677;50.942;4.028;2023-05-28T08:53:39;14.20;;;4.60;;
21036;SDS011;10677;50.942;4.028;2023-05-28T08:56:08;10.82;;;4.30;;
21036;SDS011;10677;50.942;4.028;2023-05-28T08:58:34;11.18;;;4.32;;
21036;SDS011;10677;50.942;4.028;2023-05-28T09:01:07;10.88;;;4.95;;
21036;SDS011;10677;50.942;4.028;2023-05-28T09:03:33;11.23;;;4.65;;
21036;SDS011;10677;50.942;4.028;2023-05-28T09:06:00;12.23;;;4.18;;
21036;SDS011;10677;50.942;4.028;2023-05-28T09:08:27;19.88;;;5.03;;
21036;SDS011;10677;50.942;4.028;2023-05-28T09:10:55;9.63;;;4.38;;
21036;SDS011;10677;50.942;4.028;2023-05-28T09:13:21;9.18;;;3.88;;
21036;SDS011;10677;50.942;4.028;2023-05-28T09:15:51;13.30;;;4.82;;
21036;SDS011;10677;50.942;4.028;2023-05-28T09:18:21;12.25;;;5.00;;
21036;SDS011;10677;50.942;4.028;2023-05-28T09:20:48;12.38;;;5.07;;
21036;SDS011;10677;50.942;4.028;2023-05-28T09:23:16;13.05;;;4.97;;
21036;SDS011;10677;50.942;4.028;2023-05-28T09:25:43;9.85;;;4.20;;
21036;SDS011;10677;50.942;4.028;2023-05-28T09:28:11;12.63;;;4.90;;
21036;SDS011;10677;50.942;4.028;2023-05-28T09:30:38;12.90;;;4.82;;
21036;SDS011;10677;50.942;4.028;2023-05-28T09:33:05;14.57;;;4.70;;
21036;SDS011;10677;50.942;4.028;2023-05-28T09:35:32;12.18;;;5.05;;
21036;SDS011;10677;50.942;4.028;2023-05-28T09:38:01;17.02;;;5.70;;
21036;SDS011;10677;50.942;4.028;2023-05-28T09:40:42;12.40;;;4.50;;
21036;SDS011;10677;50.942;4.028;2023-05-28T09:43:09;13.65;;;5.35;;
21036;SDS011;10677;50.942;4.028;2023-05-28T09:45:35;12.80;;;4.95;;
21036;SDS011;10677;50.942;4.028;2023-05-28T09:48:02;10.68;;;4.63;;
21036;SDS011;10677;50.942;4.028;2023-05-28T09:50:28;9.32;;;4.63;;
21036;SDS011;10677;50.942;4.028;2023-05-28T09:52:58;12.20;;;4.38;;
21036;SDS011;10677;50.942;4.028;2023-05-28T09:55:25;10.90;;;4.18;;
21036;SDS011;10677;50.942;4.028;2023-05-28T09:57:58;10.32;;;4.53;;
21036;SDS011;10677;50.942;4.028;2023-05-28T10:00:45;13.82;;;5.35;;
21036;SDS011;10677;50.942;4.028;2023-05-28T10:03:22;10.75;;;4.82;;
21036;SDS011;10677;50.942;4.028;2023-05-28T10:05:51;12.63;;;4.95;;
21036;SDS011;10677;50.942;4.028;2023-05-28T10:08:19;11.00;;;4.68;;
21036;SDS011;10677;50.942;4.028;2023-05-28T10:10:49;12.02;;;4.63;;
21036;SDS011;10677;50.942;4.028;2023-05-28T10:13:17;10.25;;;4.72;;
21036;SDS011;10677;50.942;4.028;2023-05-28T10:15:43;12.80;;;4.95;;
21036;SDS011;10677;50.942;4.028;2023-05-28T10:18:10;14.80;;;5.07;;
21036;SDS011;10677;50.942;4.028;2023-05-28T10:20:39;9.80;;;4.03;;
21036;SDS011;10677;50.942;4.028;2023-05-28T10:23:05;10.20;;;4.40;;
21036;SDS011;10677;50.942;4.028;2023-05-28T10:25:32;11.98;;;4.15;;
21036;SDS011;10677;50.942;4.028;2023-05-28T10:27:59;13.02;;;3.95;;
21036;SDS011;10677;50.942;4.028;2023-05-28T10:30:32;13.30;;;4.28;;
21036;SDS011;10677;50.942;4.028;2023-05-28T10:32:58;9.10;;;3.90;;
21036;SDS011;10677;50.942;4.028;2023-05-28T10:35:24;14.63;;;3.90;;
21036;SDS011;10677;50.942;4.028;2023-05-28T10:37:50;11.13;;;4.53;;
21036;SDS011;10677;50.942;4.028;2023-05-28T10:40:26;10.88;;;3.90;;
21036;SDS011;10677;50.942;4.028;2023-05-28T10:42:53;10.73;;;4.15;;
21036;SDS011;10677;50.942;4.028;2023-05-28T10:45:19;10.77;;;3.60;;
21036;SDS011;10677;50.942;4.028;2023-05-28T10:48:02;7.95;;;3.70;;
21036;SDS011;10677;50.942;4.028;2023-05-28T10:50:28;9.65;;;4.15;;
21036;SDS011;10677;50.942;4.028;2023-05-28T10:53:07;9.90;;;4.35;;
21036;SDS011;10677;50.942;4.028;2023-05-28T10:55:48;11.68;;;4.80;;
21036;SDS011;10677;50.942;4.028;2023-05-28T10:58:49;11.07;;;4.57;;
21036;SDS011;10677;50.942;4.028;2023-05-28T11:06:12;10.77;;;4.00;;
21036;SDS011;10677;50.942;4.028;2023-05-28T11:08:42;13.13;;;4.07;;
21036;SDS011;10677;50.942;4.028;2023-05-28T11:11:13;10.95;;;4.55;;
21036;SDS011;10677;50.942;4.028;2023-05-28T11:13:43;9.85;;;4.50;;
21036;SDS011;10677;50.942;4.028;2023-05-28T11:16:17;10.32;;;4.25;;
21036;SDS011;10677;50.942;4.028;2023-05-28T11:18:59;9.80;;;4.38;;
21036;SDS011;10677;50.942;4.028;2023-05-28T11:21:26;10.93;;;4.38;;
21036;SDS011;10677;50.942;4.028;2023-05-28T11:23:59;9.48;;;4.43;;
21036;SDS011;10677;50.942;4.028;2023-05-28T11:26:28;11.50;;;4.22;;
21036;SDS011;10677;50.942;4.028;2023-05-28T11:28:54;15.88;;;4.15;;
21036;SDS011;10677;50.942;4.028;2023-05-28T11:31:19;10.32;;;4.35;;
21036;SDS011;10677;50.942;4.028;2023-05-28T11:33:48;10.07;;;4.10;;
21036;SDS011;10677;50.942;4.028;2023-05-28T11:36:14;7.80;;;4.00;;
21036;SDS011;10677;50.942;4.028;2023-05-28T11:38:40;10.50;;;4.07;;
21036;SDS011;10677;50.942;4.028;2023-05-28T11:41:05;10.45;;;3.88;;
21036;SDS011;10677;50.942;4.028;2023-05-28T11:43:31;9.50;;;4.45;;
21036;SDS011;10677;50.942;4.028;2023-05-28T11:45:57;10.60;;;3.95;;
21036;SDS011;10677;50.942;4.028;2023-05-28T11:48:25;9.98;;;4.13;;
21036;SDS011;10677;50.942;4.028;2023-05-28T11:51:01;10.27;;;4.30;;
21036;SDS011;10677;50.942;4.028;2023-05-28T11:56:06;11.07;;;3.60;;
21036;SDS011;10677;50.942;4.028;2023-05-28T11:58:33;14.68;;;4.20;;
21036;SDS011;10677;50.942;4.028;2023-05-28T12:01:02;11.25;;;4.05;;
21036;SDS011;10677;50.942;4.028;2023-05-28T12:03:29;10.32;;;3.88;;
21036;SDS011;10677;50.942;4.028;2023-05-28T12:05:55;11.57;;;4.10;;
21036;SDS011;10677;50.942;4.028;2023-05-28T12:08:20;12.27;;;3.90;;
21036;SDS011;10677;50.942;4.028;2023-05-28T12:10:46;8.05;;;3.83;;
21036;SDS011;10677;50.942;4.028;2023-05-28T12:13:12;11.68;;;4.20;;
21036;SDS011;10677;50.942;4.028;2023-05-28T12:15:38;9.43;;;4.57;;
21036;SDS011;10677;50.942;4.028;2023-05-28T12:18:04;8.93;;;4.03;;
21036;SDS011;10677;50.942;4.028;2023-05-28T12:20:31;14.88;;;3.70;;
21036;SDS011;10677;50.942;4.028;2023-05-28T12:23:10;8.13;;;3.47;;
21036;SDS011;10677;50.942;4.028;2023-05-28T12:28:18;10.13;;;3.75;;
21036;SDS011;10677;50.942;4.028;2023-05-28T12:30:47;11.90;;;3.97;;
21036;SDS011;10677;50.942;4.028;2023-05-28T12:33:18;9.77;;;3.55;;
21036;SDS011;10677;50.942;4.028;2023-05-28T12:35:44;9.77;;;3.60;;
21036;SDS011;10677;50.942;4.028;2023-05-28T12:38:11;9.65;;;3.92;;
21036;SDS011;10677;50.942;4.028;2023-05-28T12:40:37;7.03;;;3.97;;
21036;SDS011;10677;50.942;4.028;2023-05-28T12:43:03;8.25;;;3.38;;
21036;SDS011;10677;50.942;4.028;2023-05-28T12:45:29;11.73;;;3.88;;
21036;SDS011;10677;50.942;4.028;2023-05-28T12:47:55;12.18;;;4.10;;
21036;SDS011;10677;50.942;4.028;2023-05-28T12:50:20;10.10;;;3.95;;
21036;SDS011;10677;50.942;4.028;2023-05-28T12:52:48;7.82;;;3.38;;
21036;SDS011;10677;50.942;4.028;2023-05-28T12:55:15;10.43;;;4.00;;
21036;SDS011;10677;50.942;4.028;2023-05-28T12:57:40;11.80;;;3.95;;
21036;SDS011;10677;50.942;4.028;2023-05-28T13:00:06;9.90;;;4.20;;
21036;SDS011;10677;50.942;4.028;2023-05-28T13:02:39;11.73;;;4.15;;
21036;SDS011;10677;50.942;4.028;2023-05-28T13:05:05;12.82;;;4.50;;
21036;SDS011;10677;50.942;4.028;2023-05-28T13:07:31;10.77;;;3.75;;
21036;SDS011;10677;50.942;4.028;2023-05-28T13:09:57;10.93;;;4.13;;
21036;SDS011;10677;50.942;4.028;2023-05-28T13:12:23;10.57;;;3.67;;
21036;SDS011;10677;50.942;4.028;2023-05-28T13:14:49;10.48;;;4.28;;
21036;SDS011;10677;50.942;4.028;2023-05-28T13:17:14;7.82;;;3.33;;
21036;SDS011;10677;50.942;4.028;2023-05-28T13:19:40;7.97;;;3.65;;
21036;SDS011;10677;50.942;4.028;2023-05-28T13:22:06;9.75;;;3.85;;
21036;SDS011;10677;50.942;4.028;2023-05-28T13:24:35;9.30;;;3.42;;
21036;SDS011;10677;50.942;4.028;2023-05-28T13:27:01;10.50;;;3.95;;
21036;SDS011;10677;50.942;4.028;2023-05-28T13:29:27;11.48;;;3.35;;
21036;SDS011;10677;50.942;4.028;2023-05-28T13:31:52;8.18;;;3.83;;
21036;SDS011;10677;50.942;4.028;2023-05-28T13:34:18;9.48;;;3.50;;
21036;SDS011;10677;50.942;4.028;2023-05-28T13:36:44;10.50;;;3.55;;
21036;SDS011;10677;50.942;4.028;2023-05-28T13:39:09;11.55;;;4.30;;
21036;SDS011;10677;50.942;4.028;2023-05-28T13:41:35;10.05;;;3.45;;
21036;SDS011;10677;50.942;4.028;2023-05-28T13:44:00;9.48;;;4.13;;
21036;SDS011;10677;50.942;4.028;2023-05-28T13:46:26;7.93;;;3.60;;
21036;SDS011;10677;50.942;4.028;2023-05-28T13:48:52;12.88;;;3.92;;
21036;SDS011;10677;50.942;4.028;2023-05-28T13:51:18;9.45;;;4.03;;
21036;SDS011;10677;50.942;4.028;2023-05-28T13:53:45;8.10;;;3.25;;
21036;SDS011;10677;50.942;4.028;2023-05-28T13:56:14;8.00;;;3.22;;
21036;SDS011;10677;50.942;4.028;2023-05-28T13:58:40;7.60;;;3.70;;
21036;SDS011;10677;50.942;4.028;2023-05-28T14:01:06;8.70;;;3.80;;
21036;SDS011;10677;50.942;4.028;2023-05-28T14:03:32;8.35;;;3.53;;
21036;SDS011;10677;50.942;4.028;2023-05-28T14:05:58;9.40;;;4.00;;
21036;SDS011;10677;50.942;4.028;2023-05-28T14:08:24;10.85;;;3.80;;
21036;SDS011;10677;50.942;4.028;2023-05-28T14:10:50;9.25;;;3.72;;
21036;SDS011;10677;50.942;4.028;2023-05-28T14:13:15;10.43;;;3.90;;
21036;SDS011;10677;50.942;4.028;2023-05-28T14:15:41;8.32;;;3.88;;
21036;SDS011;10677;50.942;4.028;2023-05-28T14:18:07;12.10;;;4.05;;
21036;SDS011;10677;50.942;4.028;2023-05-28T14:20:33;9.80;;;3.83;;
21036;SDS011;10677;50.942;4.028;2023-05-28T14:23:00;10.13;;;4.13;;
21036;SDS011;10677;50.942;4.028;2023-05-28T14:25:27;12.05;;;4.10;;
21036;SDS011;10677;50.942;4.028;2023-05-28T14:27:52;7.50;;;3.47;;
21036;SDS011;10677;50.942;4.028;2023-05-28T14:30:18;9.55;;;3.67;;
21036;SDS011;10677;50.942;4.028;2023-05-28T14:32:44;9.70;;;3.70;;
21036;SDS011;10677;50.942;4.028;2023-05-28T14:35:10;13.07;;;3.67;;
21036;SDS011;10677;50.942;4.028;2023-05-28T14:37:35;7.20;;;3.55;;
21036;SDS011;10677;50.942;4.028;2023-05-28T14:40:01;8.30;;;3.60;;